Time;durP1;ratioP1;P1;durP2;ratioP2;P2;SDS_P1;SDS_P2;PMS_P1;PMS_P2;Temp;Humidity;BMP_temperature;BMP_pressure;BME280_temperature;BME280_humidity;BME280_pressure;Samples;Min_cycle;Max_cycle;Signal;HPM_P1;HPM_P2
2021/08/19 00:02:14;;;;;;;2.42;2.20;;;18.70;70.70;;;;;;4995349;28;20098;-67
2021/08/19 00:04:41;;;;;;;3.60;2.22;;;18.70;70.90;;;;;;5007501;28;20099;-66
2021/08/19 00:07:07;;;;;;;2.47;2.28;;;18.70;70.90;;;;;;4999972;28;20033;-66
2021/08/19 00:09:35;;;;;;;3.00;2.38;;;18.60;70.70;;;;;;5000341;28;20420;-67
2021/08/19 00:12:00;;;;;;;2.60;2.35;;;18.60;70.90;;;;;;5006321;28;20022;-67
2021/08/19 00:14:26;;;;;;;2.28;2.08;;;18.70;70.70;;;;;;4995363;28;20069;-67
2021/08/19 00:16:52;;;;;;;3.10;2.38;;;18.70;70.70;;;;;;5005558;28;20022;-67
2021/08/19 00:19:17;;;;;;;3.67;2.38;;;18.70;70.80;;;;;;5001291;28;20109;-67
2021/08/19 00:21:43;;;;;;;2.00;1.90;;;18.70;70.60;;;;;;5002194;28;20030;-67
2021/08/19 00:24:09;;;;;;;2.40;2.20;;;18.70;70.60;;;;;;5011997;28;20122;-67
2021/08/19 00:26:34;;;;;;;4.47;2.58;;;18.60;71.00;;;;;;4999421;28;20052;-67
2021/08/19 00:29:00;;;;;;;2.53;2.33;;;18.70;70.90;;;;;;5008239;28;20042;-67
2021/08/19 00:31:25;;;;;;;4.13;2.38;;;18.70;70.70;;;;;;5005714;28;20076;-67
2021/08/19 00:33:52;;;;;;;4.15;2.40;;;18.70;70.60;;;;;;5001257;28;20019;-67
2021/08/19 00:36:19;;;;;;;2.22;2.13;;;18.70;70.60;;;;;;5011451;28;20034;-68
2021/08/19 00:38:45;;;;;;;2.50;2.30;;;18.70;71.00;;;;;;4998996;28;20022;-68
2021/08/19 00:41:11;;;;;;;2.72;2.53;;;18.70;70.90;;;;;;5006720;28;20038;-67
2021/08/19 00:43:36;;;;;;;2.40;2.20;;;18.70;70.80;;;;;;5007432;28;20109;-67
2021/08/19 00:46:03;;;;;;;4.15;2.70;;;18.70;70.70;;;;;;4999237;28;20034;-67
2021/08/19 00:48:30;;;;;;;2.58;2.38;;;18.60;70.80;;;;;;5011448;28;20037;-67
2021/08/19 00:50:55;;;;;;;2.80;2.08;;;18.60;71.10;;;;;;5001563;28;20022;-67
2021/08/19 00:53:21;;;;;;;3.30;2.05;;;18.70;70.60;;;;;;5005000;28;20103;-67
2021/08/19 00:55:51;;;;;;;2.95;2.45;;;18.70;70.50;;;;;;5008175;28;20131;-67
2021/08/19 00:58:17;;;;;;;4.18;2.53;;;18.70;70.30;;;;;;4998393;28;20502;-67
2021/08/19 01:00:44;;;;;;;2.42;2.22;;;18.60;70.70;;;;;;5008720;28;20117;-67
2021/08/19 01:03:09;;;;;;;4.05;2.60;;;18.70;70.60;;;;;;5003223;28;20030;-67
2021/08/19 01:05:40;;;;;;;5.50;2.47;;;18.70;70.50;;;;;;5001198;28;20037;-67
2021/08/19 01:08:06;;;;;;;3.00;2.45;;;18.70;70.60;;;;;;5010748;28;20026;-67
2021/08/19 01:10:31;;;;;;;2.65;2.30;;;18.60;70.50;;;;;;4998201;28;20037;-66
2021/08/19 01:12:57;;;;;;;4.25;2.70;;;18.70;70.50;;;;;;5006508;28;20030;-67
2021/08/19 01:15:23;;;;;;;3.33;2.65;;;18.70;70.30;;;;;;5004542;28;20498;-66
2021/08/19 01:17:57;;;;;;;2.80;2.53;;;18.60;70.30;;;;;;5000874;28;20445;-66
2021/08/19 01:20:29;;;;;;;4.80;2.80;;;18.60;70.20;;;;;;5010375;28;20033;-67
2021/08/19 01:22:56;;;;;;;3.78;3.05;;;18.60;70.10;;;;;;5000855;28;20026;-66
2021/08/19 01:25:22;;;;;;;4.10;2.45;;;18.60;70.10;;;;;;5002986;28;20026;-66
2021/08/19 01:27:48;;;;;;;3.75;2.78;;;18.60;70.20;;;;;;5001596;28;20101;-66
2021/08/19 01:30:14;;;;;;;2.75;2.55;;;18.50;70.50;;;;;;5017900;22;20089;-69
2021/08/19 01:32:39;;;;;;;3.17;2.70;;;18.60;70.50;;;;;;4992113;28;20039;-69
2021/08/19 01:35:05;;;;;;;2.85;2.53;;;18.50;70.50;;;;;;4991465;28;20034;-69
2021/08/19 01:37:31;;;;;;;3.28;2.60;;;18.50;70.70;;;;;;4994569;28;20066;-69
2021/08/19 01:39:56;;;;;;;6.68;3.00;;;18.60;70.70;;;;;;4994379;28;20026;-71
2021/08/19 01:42:22;;;;;;;4.95;3.00;;;18.60;70.30;;;;;;4994357;28;20026;-68
2021/08/19 01:44:47;;;;;;;2.63;2.42;;;18.50;70.60;;;;;;4994103;28;20023;-69
2021/08/19 01:47:14;;;;;;;2.95;2.65;;;18.50;70.90;;;;;;4992375;28;20529;-68
2021/08/19 01:49:41;;;;;;;2.65;2.45;;;18.50;70.90;;;;;;4992938;28;20058;-69
2021/08/19 01:52:08;;;;;;;3.00;2.70;;;18.50;71.00;;;;;;4994215;28;20026;-69
2021/08/19 01:54:34;;;;;;;2.45;2.20;;;18.50;71.10;;;;;;4978046;28;20473;-69
2021/08/19 01:57:00;;;;;;;2.80;2.60;;;18.50;71.50;;;;;;4993562;28;20037;-70
2021/08/19 01:59:27;;;;;;;2.95;2.65;;;18.50;71.10;;;;;;4992903;28;20033;-67
2021/08/19 02:01:53;;;;;;;2.97;2.65;;;18.40;71.40;;;;;;4994155;28;20037;-69
2021/08/19 02:04:19;;;;;;;5.05;3.20;;;18.30;71.70;;;;;;4992475;28;20485;-68
2021/08/19 02:06:44;;;;;;;3.17;2.80;;;18.30;71.70;;;;;;4993922;28;20105;-68
2021/08/19 02:09:10;;;;;;;3.72;2.80;;;18.20;71.80;;;;;;4993902;28;20061;-69
2021/08/19 02:11:38;;;;;;;2.83;2.60;;;18.20;72.00;;;;;;4992500;28;20022;-69
2021/08/19 02:14:04;;;;;;;3.08;2.85;;;18.20;72.00;;;;;;4993788;28;20021;-68
2021/08/19 02:16:29;;;;;;;4.00;3.15;;;18.10;72.20;;;;;;4993665;28;20014;-68
2021/08/19 02:18:55;;;;;;;3.38;3.08;;;18.20;72.30;;;;;;4992962;28;20023;-69
2021/08/19 02:21:20;;;;;;;4.35;3.33;;;18.20;71.90;;;;;;4994224;28;20134;-68
2021/08/19 02:23:46;;;;;;;3.65;2.85;;;18.10;72.10;;;;;;4994207;28;20532;-69
2021/08/19 02:26:11;;;;;;;3.83;2.92;;;18.10;72.30;;;;;;4992516;28;20109;-68
2021/08/19 02:28:37;;;;;;;3.10;2.83;;;18.10;72.50;;;;;;4994006;28;20433;-68
2021/08/19 02:31:02;;;;;;;4.00;3.05;;;18.00;72.20;;;;;;4993825;28;20065;-68
2021/08/19 02:33:28;;;;;;;3.55;2.90;;;18.00;72.30;;;;;;4993596;28;20026;-69
2021/08/19 02:35:53;;;;;;;4.70;3.42;;;18.00;72.20;;;;;;4993656;28;20029;-69
2021/08/19 02:38:19;;;;;;;3.47;3.17;;;18.00;71.90;;;;;;4992293;28;20022;-69
2021/08/19 02:40:44;;;;;;;4.72;3.25;;;18.00;72.20;;;;;;4993659;28;20030;-69
2021/08/19 02:43:10;;;;;;;3.13;2.90;;;18.00;72.20;;;;;;4992732;28;20030;-69
2021/08/19 02:45:36;;;;;;;3.97;3.45;;;18.00;72.00;;;;;;4992567;28;20034;-70
2021/08/19 02:48:02;;;;;;;3.00;2.80;;;18.00;72.00;;;;;;4993164;28;20025;-70
2021/08/19 02:50:28;;;;;;;4.85;3.22;;;18.00;72.00;;;;;;4992893;28;20026;-70
2021/08/19 02:52:55;;;;;;;2.83;2.63;;;18.00;72.00;;;;;;4993153;28;20089;-69
2021/08/19 02:55:20;;;;;;;4.50;2.78;;;18.00;72.00;;;;;;4991300;28;20365;-69
2021/08/19 02:57:46;;;;;;;2.95;2.65;;;18.00;72.00;;;;;;4992523;28;20037;-70
2021/08/19 03:00:12;;;;;;;3.35;2.55;;;18.00;72.40;;;;;;4992698;28;20029;-69
2021/08/19 03:02:37;;;;;;;4.07;2.65;;;18.00;72.10;;;;;;4994205;28;20041;-69
2021/08/19 03:05:05;;;;;;;4.78;3.15;;;17.90;72.20;;;;;;4992490;28;20034;-68
2021/08/19 03:07:31;;;;;;;3.00;2.80;;;18.00;72.10;;;;;;4991334;28;20033;-69
2021/08/19 03:09:56;;;;;;;4.85;3.38;;;17.90;72.20;;;;;;4992713;28;20113;-68
2021/08/19 03:12:22;;;;;;;4.22;3.00;;;18.00;72.10;;;;;;4991214;28;20053;-69
2021/08/19 03:14:48;;;;;;;6.82;3.47;;;17.90;72.40;;;;;;4992438;28;20022;-69
2021/08/19 03:17:13;;;;;;;5.13;4.60;;;17.90;72.10;;;;;;4992595;28;20512;-69
2021/08/19 03:19:39;;;;;;;7.18;5.18;;;18.00;71.80;;;;;;4992373;28;20022;-69
2021/08/19 03:22:05;;;;;;;6.25;4.88;;;18.00;71.70;;;;;;4991172;28;20117;-68
2021/08/19 03:24:31;;;;;;;7.47;4.35;;;17.90;71.80;;;;;;4992280;28;20053;-69
2021/08/19 03:26:58;;;;;;;5.85;4.07;;;17.90;72.00;;;;;;4992307;28;20026;-69
2021/08/19 03:29:24;;;;;;;6.65;3.17;;;17.90;71.90;;;;;;4996403;28;20076;-69
2021/08/19 03:31:50;;;;;;;522.45;392.63;;;17.90;71.90;;;;;;4995259;28;20035;-69
2021/08/19 03:34:15;;;;;;;4.57;3.78;;;18.00;72.30;;;;;;4995148;28;20035;-69
2021/08/19 03:36:42;;;;;;;6.38;4.75;;;18.00;71.60;;;;;;4992017;28;20019;-68
2021/08/19 03:39:07;;;;;;;4.40;3.83;;;18.00;71.80;;;;;;4990898;28;20030;-68
2021/08/19 03:41:33;;;;;;;5.18;3.63;;;18.00;72.10;;;;;;4992435;28;20337;-69
2021/08/19 03:43:59;;;;;;;4.45;3.08;;;18.00;71.80;;;;;;4992833;28;20441;-69
2021/08/19 03:46:24;;;;;;;3.28;2.97;;;18.00;71.80;;;;;;4991740;28;20026;-68
2021/08/19 03:48:50;;;;;;;3.05;2.83;;;18.00;71.70;;;;;;4990779;28;20038;-68
2021/08/19 03:51:16;;;;;;;3.80;3.05;;;18.00;71.90;;;;;;4990789;28;20540;-69
2021/08/19 03:53:41;;;;;;;5.22;3.28;;;18.00;71.80;;;;;;4990854;28;20089;-69
2021/08/19 03:56:08;;;;;;;3.28;2.95;;;18.00;71.90;;;;;;4996877;28;20030;-69
2021/08/19 03:58:34;;;;;;;4.70;3.13;;;18.00;71.80;;;;;;4997020;28;20022;-70
2021/08/19 04:01:01;;;;;;;3.35;2.70;;;18.00;71.60;;;;;;4997198;28;20026;-70
2021/08/19 04:03:27;;;;;;;3.50;2.83;;;18.00;71.90;;;;;;4998468;28;20037;-69
2021/08/19 04:05:52;;;;;;;6.03;3.08;;;18.00;72.10;;;;;;4998444;28;20105;-69
2021/08/19 04:08:18;;;;;;;6.25;3.33;;;18.00;72.20;;;;;;4998474;28;20106;-69
2021/08/19 04:10:44;;;;;;;4.68;3.40;;;18.00;72.10;;;;;;4998400;28;20444;-69
2021/08/19 04:13:09;;;;;;;3.40;2.90;;;18.00;72.10;;;;;;4998519;28;20026;-69
2021/08/19 04:15:35;;;;;;;3.80;2.65;;;18.00;72.00;;;;;;4998105;28;20027;-69
2021/08/19 04:18:00;;;;;;;3.20;2.67;;;18.00;72.20;;;;;;4998247;28;20030;-69
2021/08/19 04:20:26;;;;;;;4.07;2.70;;;18.00;72.30;;;;;;4997639;28;20026;-70
2021/08/19 04:22:51;;;;;;;3.35;2.65;;;18.00;72.40;;;;;;4998284;28;20473;-70
2021/08/19 04:25:17;;;;;;;2.80;2.58;;;18.00;72.50;;;;;;4998130;28;20458;-70
2021/08/19 04:27:43;;;;;;;4.80;2.88;;;18.10;72.30;;;;;;4998360;28;20023;-70
2021/08/19 04:30:09;;;;;;;4.18;2.33;;;18.20;72.20;;;;;;4998044;28;20038;-69
2021/08/19 04:32:35;;;;;;;2.78;2.47;;;18.10;72.30;;;;;;4982148;28;20025;-69
2021/08/19 04:35:01;;;;;;;4.75;2.92;;;18.10;72.60;;;;;;4996843;28;20026;-70
2021/08/19 04:37:27;;;;;;;3.85;2.47;;;18.10;72.80;;;;;;4998199;28;20097;-69
2021/08/19 04:39:52;;;;;;;3.80;2.65;;;18.10;72.90;;;;;;4998017;28;20022;-70
2021/08/19 04:42:19;;;;;;;2.95;2.65;;;18.10;72.70;;;;;;4998498;28;20547;-69
2021/08/19 04:44:44;;;;;;;3.90;2.03;;;18.10;72.50;;;;;;4997894;28;20022;-69
2021/08/19 04:47:10;;;;;;;4.75;2.88;;;18.20;72.50;;;;;;4997795;28;20031;-69
2021/08/19 04:49:35;;;;;;;6.20;2.65;;;18.30;72.40;;;;;;4997887;28;20034;-69
2021/08/19 04:52:01;;;;;;;3.05;2.40;;;18.30;71.90;;;;;;4998116;28;20105;-69
2021/08/19 04:54:27;;;;;;;4.03;2.85;;;18.40;72.00;;;;;;4997838;28;20069;-69
2021/08/19 04:56:52;;;;;;;2.85;2.50;;;18.40;71.60;;;;;;4997566;28;20042;-69
2021/08/19 04:59:18;;;;;;;4.35;2.65;;;18.50;71.60;;;;;;4997794;28;20022;-69
2021/08/19 05:01:43;;;;;;;5.05;3.00;;;18.50;71.30;;;;;;4996654;28;20049;-70
2021/08/19 05:04:09;;;;;;;3.67;2.65;;;18.40;71.30;;;;;;4996767;28;20026;-70
2021/08/19 05:06:35;;;;;;;5.20;2.72;;;18.50;71.30;;;;;;4995593;28;20026;-69
2021/08/19 05:09:04;;;;;;;4.03;2.92;;;18.40;71.10;;;;;;4994807;28;20444;-70
2021/08/19 05:11:30;;;;;;;4.72;3.40;;;18.40;71.20;;;;;;4994601;28;20047;-70
2021/08/19 05:13:58;;;;;;;2.40;2.20;;;18.40;71.10;;;;;;4993479;28;20026;-70
2021/08/19 05:16:24;;;;;;;3.17;2.63;;;18.40;71.10;;;;;;4992969;28;20027;-69
2021/08/19 05:18:49;;;;;;;3.50;2.42;;;18.30;71.50;;;;;;4994694;28;20026;-70
2021/08/19 05:21:16;;;;;;;6.15;2.60;;;18.20;71.40;;;;;;4994463;28;20038;-70
2021/08/19 05:23:41;;;;;;;2.63;2.42;;;18.30;71.70;;;;;;4995681;28;20034;-68
2021/08/19 05:26:07;;;;;;;4.45;2.60;;;18.30;71.40;;;;;;4994597;28;20041;-69
2021/08/19 05:28:33;;;;;;;2.30;2.10;;;18.30;71.20;;;;;;4994414;28;20026;-68
2021/08/19 05:31:00;;;;;;;3.05;2.50;;;18.30;71.40;;;;;;4992644;28;20050;-70
2021/08/19 05:33:25;;;;;;;2.97;2.67;;;18.40;70.90;;;;;;4992999;28;20023;-70
2021/08/19 05:35:51;;;;;;;2.75;2.40;;;18.50;70.80;;;;;;4994025;28;20449;-70
2021/08/19 05:38:17;;;;;;;3.13;2.20;;;18.50;70.50;;;;;;4994188;28;20396;-69
2021/08/19 05:40:43;;;;;;;2.47;2.17;;;18.50;70.50;;;;;;4993023;28;20392;-70
2021/08/19 05:43:09;;;;;;;5.50;2.72;;;18.50;70.20;;;;;;4994112;28;20497;-70
2021/08/19 05:45:35;;;;;;;2.42;2.22;;;18.60;70.00;;;;;;4992697;28;20085;-69
2021/08/19 05:48:03;;;;;;;2.47;2.10;;;18.60;69.90;;;;;;4992835;28;20026;-70
2021/08/19 05:50:29;;;;;;;3.83;2.83;;;18.60;70.00;;;;;;4994001;28;20029;-70
2021/08/19 05:52:55;;;;;;;4.65;2.20;;;18.70;69.50;;;;;;4994192;28;20393;-70
2021/08/19 05:55:21;;;;;;;6.25;3.00;;;18.70;69.10;;;;;;4992673;28;20029;-70
2021/08/19 05:57:51;;;;;;;3.70;2.92;;;18.90;68.90;;;;;;4993949;28;20088;-69
2021/08/19 06:00:21;;;;;;;2.97;2.75;;;18.90;68.70;;;;;;4994177;28;20157;-70
2021/08/19 06:02:48;;;;;;;2.97;2.40;;;19.00;68.60;;;;;;4992584;28;20023;-71
2021/08/19 06:05:13;;;;;;;3.25;2.47;;;19.10;68.00;;;;;;4992344;28;20141;-70
2021/08/19 06:07:39;;;;;;;4.40;2.55;;;19.20;68.00;;;;;;4993647;28;20041;-70
2021/08/19 06:10:05;;;;;;;7.40;2.70;;;19.30;67.80;;;;;;4992277;28;20026;-70
2021/08/19 06:12:31;;;;;;;2.92;2.30;;;19.40;67.00;;;;;;4993189;28;20035;-71
2021/08/19 06:14:56;;;;;;;2.90;2.60;;;19.50;67.10;;;;;;4990420;28;20745;-71
2021/08/19 06:17:22;;;;;;;4.05;2.45;;;19.50;66.40;;;;;;4990408;28;20019;-70
2021/08/19 06:19:47;;;;;;;4.20;3.05;;;19.70;66.40;;;;;;4988706;28;20161;-70
2021/08/19 06:22:13;;;;;;;3.72;2.50;;;19.70;65.50;;;;;;4986970;28;20117;-69
2021/08/19 06:24:39;;;;;;;5.15;2.72;;;19.80;65.70;;;;;;4993080;28;20037;-73
2021/08/19 06:27:04;;;;;;;3.60;2.67;;;19.90;65.50;;;;;;4993290;28;20112;-70
2021/08/19 06:29:30;;;;;;;4.10;3.08;;;19.90;64.80;;;;;;4992526;28;20042;-69
2021/08/19 06:31:55;;;;;;;3.83;3.08;;;20.00;64.90;;;;;;4989426;28;20045;-72
2021/08/19 06:34:21;;;;;;;3.53;3.22;;;20.00;64.60;;;;;;4990970;28;20018;-69
2021/08/19 06:36:46;;;;;;;6.18;3.17;;;20.10;64.50;;;;;;4991020;28;20077;-69
2021/08/19 06:39:12;;;;;;;4.88;2.97;;;20.30;64.20;;;;;;4988849;28;20023;-69
2021/08/19 06:41:37;;;;;;;95.82;68.93;;;20.50;63.30;;;;;;4990934;28;20034;-70
2021/08/19 06:44:03;;;;;;;62.90;48.35;;;20.50;63.20;;;;;;4991145;28;20273;-68
2021/08/19 06:46:29;;;;;;;122.40;88.60;;;20.50;63.40;;;;;;4991721;28;20550;-70
2021/08/19 06:48:54;;;;;;;45.03;34.33;;;20.50;63.20;;;;;;4991593;28;20026;-69
2021/08/19 06:51:20;;;;;;;31.52;23.38;;;20.50;62.90;;;;;;4992620;28;20061;-69
2021/08/19 06:53:45;;;;;;;36.95;28.92;;;20.60;62.90;;;;;;4993019;28;20021;-70
2021/08/19 06:56:12;;;;;;;26.30;19.85;;;20.50;63.10;;;;;;4992658;28;20113;-70
2021/08/19 06:58:37;;;;;;;15.25;10.45;;;20.50;63.30;;;;;;4992842;28;20036;-68
2021/08/19 07:01:03;;;;;;;31.38;24.92;;;20.60;62.90;;;;;;4992758;28;20113;-68
2021/08/19 07:03:28;;;;;;;6.80;4.65;;;20.70;62.40;;;;;;4992927;28;20031;-69
2021/08/19 07:05:54;;;;;;;5.60;3.88;;;20.90;62.00;;;;;;4993391;28;20022;-70
2021/08/19 07:08:19;;;;;;;15.40;12.15;;;21.00;61.00;;;;;;4992801;28;20034;-69
2021/08/19 07:10:45;;;;;;;6.90;4.97;;;21.20;61.30;;;;;;4991408;28;20037;-72
2021/08/19 07:13:11;;;;;;;9.13;4.43;;;21.50;59.90;;;;;;4992798;28;20050;-70
2021/08/19 07:15:37;;;;;;;8.98;4.60;;;21.50;59.50;;;;;;4992279;28;20034;-70
2021/08/19 07:18:02;;;;;;;8.82;3.83;;;21.60;59.40;;;;;;4992786;28;20037;-70
2021/08/19 07:20:31;;;;;;;6.90;3.28;;;21.60;59.00;;;;;;4992514;28;20473;-70
2021/08/19 07:22:56;;;;;;;8.07;5.80;;;21.90;58.80;;;;;;4992455;28;20061;-70
2021/08/19 07:25:22;;;;;;;5.78;4.15;;;;;;;;;;4992270;28;20087;-69
2021/08/19 07:27:48;;;;;;;3.75;2.92;;;22.10;57.20;;;;;;4991199;28;20030;-69
2021/08/19 07:30:14;;;;;;;5.45;4.15;;;22.30;57.20;;;;;;5015146;23;20416;-69
2021/08/19 07:32:40;;;;;;;6.45;3.80;;;22.50;56.70;;;;;;5011855;28;20116;-69
2021/08/19 07:35:06;;;;;;;4.60;4.18;;;22.40;56.10;;;;;;5005331;28;20033;-69
2021/08/19 07:37:32;;;;;;;10.55;7.53;;;22.10;57.00;;;;;;5010594;28;20088;-69
2021/08/19 07:39:57;;;;;;;3.88;3.47;;;21.90;58.30;;;;;;5010507;28;20053;-69
2021/08/19 07:42:23;;;;;;;5.78;3.67;;;21.70;58.80;;;;;;4995761;28;20034;-72
2021/08/19 07:44:49;;;;;;;4.32;3.88;;;21.60;58.20;;;;;;5005370;28;20038;-70
2021/08/19 07:47:15;;;;;;;5.97;3.78;;;21.50;59.20;;;;;;5003345;28;20499;-73
2021/08/19 07:49:40;;;;;;;4.20;3.58;;;21.50;59.50;;;;;;5000351;28;20072;-71
2021/08/19 07:52:06;;;;;;;4.10;2.70;;;21.60;59.00;;;;;;5008800;28;20025;-71
2021/08/19 07:54:32;;;;;;;10.40;4.32;;;21.60;58.40;;;;;;4994722;28;20025;-71
2021/08/19 07:56:58;;;;;;;7.25;4.68;;;21.50;59.10;;;;;;5005458;28;20481;-72
2021/08/19 07:59:23;;;;;;;3.97;3.60;;;21.30;59.60;;;;;;5000982;28;20026;-72
2021/08/19 08:01:49;;;;;;;6.32;3.60;;;21.00;60.60;;;;;;4997233;28;20066;-71
2021/08/19 08:04:14;;;;;;;4.85;3.25;;;21.00;60.90;;;;;;5007304;28;20045;-71
2021/08/19 08:06:40;;;;;;;4.35;3.60;;;21.10;60.80;;;;;;4996173;28;20123;-70
2021/08/19 08:09:06;;;;;;;5.00;2.72;;;21.00;60.90;;;;;;5004236;28;20574;-71
2021/08/19 08:11:32;;;;;;;3.78;2.92;;;21.00;61.10;;;;;;5003584;28;20033;-71
2021/08/19 08:13:58;;;;;;;3.42;3.00;;;21.20;61.00;;;;;;4997095;28;20015;-70
2021/08/19 08:16:24;;;;;;;7.38;3.20;;;21.20;60.20;;;;;;5008342;28;20352;-71
2021/08/19 08:18:50;;;;;;;6.93;4.28;;;21.20;60.60;;;;;;4997901;28;20022;-71
2021/08/19 08:21:16;;;;;;;8.95;4.82;;;21.10;60.30;;;;;;5002592;28;20120;-69
2021/08/19 08:23:42;;;;;;;6.13;4.10;;;20.90;60.60;;;;;;5003539;28;20037;-69
2021/08/19 08:26:10;;;;;;;4.03;3.28;;;20.90;60.80;;;;;;4995714;28;20031;-69
2021/08/19 08:28:36;;;;;;;4.38;3.50;;;21.00;61.00;;;;;;4980203;28;20026;-69
2021/08/19 08:31:03;;;;;;;3.03;2.72;;;20.90;61.40;;;;;;5002570;28;20040;-69
2021/08/19 08:33:30;;;;;;;6.57;3.33;;;20.90;61.20;;;;;;5001517;28;20028;-69
2021/08/19 08:35:56;;;;;;;6.20;2.80;;;20.80;61.10;;;;;;5006071;28;20021;-69
2021/08/19 08:38:22;;;;;;;4.30;3.05;;;20.90;61.40;;;;;;4994178;28;20084;-68
2021/08/19 08:40:49;;;;;;;4.60;3.70;;;21.10;60.80;;;;;;4991532;28;20440;-73
2021/08/19 08:43:16;;;;;;;4.53;3.40;;;21.20;60.40;;;;;;5004393;28;20026;-70
2021/08/19 08:45:51;;;;;;;3.55;2.63;;;21.40;59.60;;;;;;5008124;28;20079;-73
2021/08/19 08:48:20;;;;;;;11.30;7.20;;;21.50;59.60;;;;;;4999305;28;20396;-76
2021/08/19 08:50:48;;;;;;;22.88;12.25;;;21.60;59.00;;;;;;5010173;28;20277;-73
2021/08/19 08:53:15;;;;;;;20.65;10.70;;;21.60;59.20;;;;;;5004665;28;20026;-77
2021/08/19 08:55:41;;;;;;;15.70;8.18;;;21.60;59.20;;;;;;5002227;28;20018;-73
2021/08/19 08:58:07;;;;;;;9.00;4.30;;;21.50;59.30;;;;;;5011087;28;20395;-72
2021/08/19 09:00:33;;;;;;;20.70;9.63;;;21.50;59.30;;;;;;4998783;28;20077;-73
2021/08/19 09:02:59;;;;;;;34.70;16.83;;;21.50;59.40;;;;;;5006400;28;20448;-72
2021/08/19 09:05:26;;;;;;;9.18;3.10;;;21.50;59.20;;;;;;5005162;28;20037;-72
2021/08/19 09:07:52;;;;;;;13.65;7.50;;;21.50;59.40;;;;;;5001569;28;20045;-72
2021/08/19 09:10:19;;;;;;;20.67;11.30;;;21.30;59.40;;;;;;5012446;28;20075;-72
2021/08/19 09:12:45;;;;;;;12.23;7.25;;;21.20;59.70;;;;;;5005156;28;20029;-72
2021/08/19 09:15:16;;;;;;;31.17;14.82;;;21.20;60.10;;;;;;5008677;28;20061;-72
2021/08/19 09:17:49;;;;;;;16.67;9.48;;;21.20;60.30;;;;;;5008157;28;20022;-71
2021/08/19 09:20:16;;;;;;;10.27;6.03;;;21.20;60.30;;;;;;5000073;28;20388;-70
2021/08/19 09:22:59;;;;;;;20.40;11.77;;;21.20;60.00;;;;;;5016577;28;20508;-68
2021/08/19 09:25:38;;;;;;;6.30;3.33;;;21.20;60.10;;;;;;5006750;28;20373;-74
2021/08/19 09:28:21;;;;;;;5.60;2.95;;;21.10;60.50;;;;;;5000846;28;20022;-73
2021/08/19 09:31:06;;;;;;;7.72;4.20;;;21.00;60.70;;;;;;4985779;28;20139;-71
2021/08/19 09:33:35;;;;;;;8.07;5.07;;;21.00;60.80;;;;;;5003353;28;20030;-71
2021/08/19 09:36:08;;;;;;;6.20;4.35;;;21.20;60.40;;;;;;5009789;28;20014;-71
2021/08/19 09:38:42;;;;;;;9.35;5.13;;;21.20;60.40;;;;;;4982242;28;20014;-71
2021/08/19 09:41:13;;;;;;;10.10;5.72;;;21.20;61.90;;;;;;5006570;28;20137;-73
2021/08/19 09:43:43;;;;;;;11.70;7.30;;;21.00;60.70;;;;;;5007421;28;20026;-74
2021/08/19 09:46:11;;;;;;;7.68;5.15;;;21.00;60.60;;;;;;4998148;28;20030;-74
2021/08/19 09:48:37;;;;;;;8.63;5.68;;;21.00;61.10;;;;;;5010400;28;20027;-74
2021/08/19 09:51:22;;;;;;;42.25;30.35;;;21.00;61.50;;;;;;5001880;28;20056;-74
2021/08/19 09:53:58;;;;;;;108.00;54.55;;;21.30;60.90;;;;;;4982768;28;20181;-72
2021/08/19 09:56:34;;;;;;;16.65;8.20;;;21.60;60.10;;;;;;5010691;28;20026;-73
2021/08/19 09:59:23;;;;;;;11.63;7.53;;;22.00;58.80;;;;;;5001757;28;20033;-75
2021/08/19 10:01:51;;;;;;;9.80;5.63;;;22.30;58.30;;;;;;4999268;28;20511;-76
2021/08/19 10:04:17;;;;;;;13.93;6.93;;;22.70;55.80;;;;;;5010636;28;20376;-74
2021/08/19 10:06:44;;;;;;;10.57;5.68;;;22.70;55.60;;;;;;4999279;28;20018;-74
2021/08/19 10:09:10;;;;;;;13.02;7.80;;;22.60;55.40;;;;;;5005578;28;20463;-74
2021/08/19 10:11:37;;;;;;;8.52;2.95;;;22.80;55.70;;;;;;5005983;28;20030;-72
2021/08/19 10:14:03;;;;;;;9.85;6.15;;;22.70;55.30;;;;;;4998351;28;20026;-72
2021/08/19 10:16:30;;;;;;;18.45;10.85;;;22.60;56.10;;;;;;5010010;28;20480;-69
2021/08/19 10:19:00;;;;;;;19.00;10.55;;;22.50;56.00;;;;;;5000429;28;20471;-72
2021/08/19 10:21:28;;;;;;;26.27;16.85;;;22.60;55.80;;;;;;5003018;28;20052;-74
2021/08/19 10:23:54;;;;;;;24.35;15.50;;;22.60;55.80;;;;;;5008035;28;20038;-67
2021/08/19 10:26:21;;;;;;;19.33;12.73;;;22.80;55.20;;;;;;4996741;28;20042;-67
2021/08/19 10:28:57;;;;;;;32.58;20.48;;;22.80;54.80;;;;;;5006777;28;20028;-69
2021/08/19 10:31:43;;;;;;;15.38;8.65;;;22.70;55.60;;;;;;5003837;28;20025;-66
2021/08/19 10:34:10;;;;;;;23.90;16.02;;;22.70;56.00;;;;;;4996856;28;20026;-72
2021/08/19 10:36:42;;;;;;;4.85;2.95;;;22.60;56.80;;;;;;5008075;28;20018;-74
2021/08/19 10:39:25;;;;;;;8.93;6.07;;;22.90;56.40;;;;;;4999740;28;20033;-73
2021/08/19 10:41:54;;;;;;;40.80;25.55;;;23.00;55.80;;;;;;5006435;28;20034;-72
2021/08/19 10:44:30;;;;;;;47.35;29.60;;;23.20;55.40;;;;;;4996916;28;20033;-72
2021/08/19 10:46:55;;;;;;;35.67;19.40;;;23.30;54.60;;;;;;5006861;28;20036;-71
2021/08/19 10:49:30;;;;;;;39.58;22.98;;;23.30;55.00;;;;;;5002988;28;20108;-73
2021/08/19 10:52:08;;;;;;;16.50;10.73;;;23.30;55.10;;;;;;5001314;28;20032;-72
2021/08/19 10:54:39;;;;;;;9.13;5.55;;;22.90;55.60;;;;;;4981985;28;20134;-73
2021/08/19 10:57:24;;;;;;;10.98;6.45;;;22.80;56.50;;;;;;5004193;28;20031;-72
2021/08/19 10:59:57;;;;;;;12.98;7.75;;;22.90;57.00;;;;;;5006778;28;20041;-72
2021/08/19 11:02:51;;;;;;;5.72;4.10;;;23.00;57.00;;;;;;4996550;28;20403;-74
2021/08/19 11:05:52;;;;;;;2.40;2.20;;;23.10;56.90;;;;;;5000944;28;20029;-68
2021/08/19 11:08:46;;;;;;;24.93;17.27;;;23.30;56.00;;;;;;4990048;28;20055;-69
2021/08/19 11:11:38;;;;;;;32.75;22.42;;;23.70;55.00;;;;;;4991258;28;20273;-69
2021/08/19 11:14:10;;;;;;;13.38;6.38;;;23.80;54.60;;;;;;4983381;28;20357;-69
2021/08/19 11:16:38;;;;;;;12.93;7.50;;;23.90;55.10;;;;;;4992741;28;20018;-69
2021/08/19 11:19:30;;;;;;;11.07;6.80;;;24.10;53.70;;;;;;4992739;28;20026;-69
2021/08/19 11:22:04;;;;;;;15.95;11.82;;;24.30;53.70;;;;;;4993046;28;20096;-69
2021/08/19 11:24:30;;;;;;;8.05;6.30;;;;;;;;;;4992875;28;20058;-69
2021/08/19 11:27:01;;;;;;;9.98;6.30;;;;;;;;;;4993187;28;20026;-69
2021/08/19 11:29:44;;;;;;;7.10;4.93;;;24.90;52.50;;;;;;4992543;28;20026;-68
2021/08/19 11:32:12;;;;;;;10.20;7.25;;;24.90;51.70;;;;;;4992568;28;20106;-69
2021/08/19 11:34:45;;;;;;;8.50;6.85;;;25.00;51.10;;;;;;4992483;28;20381;-68
2021/08/19 11:37:11;;;;;;;13.95;7.65;;;25.20;51.50;;;;;;4992530;28;20022;-68
2021/08/19 11:39:36;;;;;;;19.92;13.73;;;25.30;50.50;;;;;;4992910;28;20436;-68
2021/08/19 11:42:05;;;;;;;14.70;10.50;;;25.30;50.40;;;;;;4992571;28;20158;-68
2021/08/19 11:44:32;;;;;;;18.85;11.95;;;25.30;49.80;;;;;;4991018;28;20057;-69
2021/08/19 11:47:02;;;;;;;20.02;15.05;;;25.30;49.80;;;;;;4992599;28;20030;-69
2021/08/19 11:49:28;;;;;;;4.68;3.25;;;25.20;50.10;;;;;;4991548;28;20393;-70
2021/08/19 11:52:08;;;;;;;9.30;6.97;;;24.90;50.60;;;;;;4992383;28;20030;-68
2021/08/19 11:54:46;;;;;;;17.23;11.75;;;24.80;50.80;;;;;;4992347;28;20506;-68
2021/08/19 11:57:24;;;;;;;8.07;5.35;;;24.60;51.50;;;;;;4993347;28;20018;-69
2021/08/19 12:00:06;;;;;;;12.82;8.82;;;24.60;51.50;;;;;;4993064;28;20089;-70
2021/08/19 12:02:31;;;;;;;12.43;9.45;;;24.40;51.90;;;;;;4992980;28;20030;-69
2021/08/19 12:05:05;;;;;;;8.55;6.80;;;24.40;52.00;;;;;;4993123;28;20030;-69
2021/08/19 12:07:31;;;;;;;9.13;6.20;;;24.20;52.40;;;;;;4994203;28;20027;-69
2021/08/19 12:09:57;;;;;;;14.07;9.55;;;24.10;52.40;;;;;;4994031;28;20435;-69
2021/08/19 12:12:25;;;;;;;15.95;9.35;;;23.80;53.50;;;;;;4993694;28;20038;-70
2021/08/19 12:14:52;;;;;;;15.10;10.45;;;23.50;54.10;;;;;;4994508;28;20033;-69
2021/08/19 12:17:17;;;;;;;8.80;6.93;;;23.10;55.30;;;;;;5002079;28;20054;-70
2021/08/19 12:19:43;;;;;;;5.60;4.07;;;23.00;55.80;;;;;;5003288;28;20365;-68
2021/08/19 12:22:09;;;;;;;5.43;2.58;;;22.80;56.20;;;;;;5002817;28;20298;-68
2021/08/19 12:24:39;;;;;;;11.52;7.85;;;;;;;;;;5008464;28;20419;-69
2021/08/19 12:27:07;;;;;;;4.97;4.13;;;;;;;;;;4999095;28;20022;-69
2021/08/19 12:29:34;;;;;;;10.88;6.75;;;;;;;;;;4994727;28;20045;-68
2021/08/19 12:32:01;;;;;;;7.15;5.13;;;;;;;;;;4996028;28;20036;-69
2021/08/19 12:34:27;;;;;;;6.63;4.18;;;;;;;;;;4994446;28;20105;-69
2021/08/19 12:36:53;;;;;;;10.52;6.45;;;;;;;;;;4995805;28;20154;-69
2021/08/19 12:39:23;;;;;;;6.75;4.20;;;;;;;;;;4992499;28;20030;-67
2021/08/19 12:41:51;;;;;;;5.72;3.03;;;;;;;;;;4994600;28;20101;-68
2021/08/19 12:44:18;;;;;;;14.20;9.63;;;;;;;;;;4994627;28;20105;-69
2021/08/19 12:46:45;;;;;;;9.45;5.90;;;;;;;;;;4996067;28;20081;-68
2021/08/19 12:49:29;;;;;;;5.97;3.80;;;;;;;;;;4994446;28;20121;-70
2021/08/19 12:52:14;;;;;;;7.25;4.50;;;;;;;;;;4994238;28;20062;-69